sensor_id;sensor_type;location;lat;lon;timestamp;P1;durP1;ratioP1;P2;durP2;ratioP2
6013;SDS011;3035;49.928;8.410;2024-03-23T00:55:39;14.03;;;9.20;;
6013;SDS011;3035;49.928;8.410;2024-03-23T00:58:07;12.60;;;8.97;;
6013;SDS011;3035;49.928;8.410;2024-03-23T01:00:34;15.13;;;9.00;;
6013;SDS011;3035;49.928;8.410;2024-03-23T01:03:01;14.80;;;9.27;;
6013;SDS011;3035;49.928;8.410;2024-03-23T01:05:29;17.10;;;9.50;;
6013;SDS011;3035;49.928;8.410;2024-03-23T01:07:56;19.70;;;10.10;;
6013;SDS011;3035;49.928;8.410;2024-03-23T01:10:24;14.43;;;10.10;;
6013;SDS011;3035;49.928;8.410;2024-03-23T01:12:51;15.63;;;10.00;;
6013;SDS011;3035;49.928;8.410;2024-03-23T01:15:19;20.67;;;10.27;;
6013;SDS011;3035;49.928;8.410;2024-03-23T01:17:46;18.30;;;10.93;;
6013;SDS011;3035;49.928;8.410;2024-03-23T01:20:14;17.83;;;10.40;;
6013;SDS011;3035;49.928;8.410;2024-03-23T01:22:41;15.07;;;9.57;;
6013;SDS011;3035;49.928;8.410;2024-03-23T01:25:08;17.23;;;10.23;;
6013;SDS011;3035;49.928;8.410;2024-03-23T01:27:36;16.27;;;8.80;;
6013;SDS011;3035;49.928;8.410;2024-03-23T01:30:03;15.33;;;10.30;;
6013;SDS011;3035;49.928;8.410;2024-03-23T01:32:31;12.03;;;9.40;;
6013;SDS011;3035;49.928;8.410;2024-03-23T01:34:58;13.00;;;9.80;;
6013;SDS011;3035;49.928;8.410;2024-03-23T01:37:26;15.47;;;9.67;;
6013;SDS011;3035;49.928;8.410;2024-03-23T01:39:53;15.07;;;10.33;;
6013;SDS011;3035;49.928;8.410;2024-03-23T01:42:21;13.50;;;9.57;;
6013;SDS011;3035;49.928;8.410;2024-03-23T01:44:48;19.17;;;10.33;;
6013;SDS011;3035;49.928;8.410;2024-03-23T01:47:16;14.73;;;10.47;;
6013;SDS011;3035;49.928;8.410;2024-03-23T01:49:43;20.30;;;10.57;;
6013;SDS011;3035;49.928;8.410;2024-03-23T01:52:11;19.33;;;11.00;;
6013;SDS011;3035;49.928;8.410;2024-03-23T01:54:38;26.50;;;10.70;;
6013;SDS011;3035;49.928;8.410;2024-03-23T01:57:06;19.27;;;10.80;;
6013;SDS011;3035;49.928;8.410;2024-03-23T01:59:33;15.83;;;10.33;;
6013;SDS011;3035;49.928;8.410;2024-03-23T02:02:00;17.40;;;11.07;;
6013;SDS011;3035;49.928;8.410;2024-03-23T02:04:28;21.10;;;11.87;;
6013;SDS011;3035;49.928;8.410;2024-03-23T02:06:55;21.20;;;11.97;;
6013;SDS011;3035;49.928;8.410;2024-03-23T02:09:23;19.63;;;12.33;;
6013;SDS011;3035;49.928;8.410;2024-03-23T02:11:50;18.60;;;12.20;;
6013;SDS011;3035;49.928;8.410;2024-03-23T02:14:18;20.53;;;10.83;;
6013;SDS011;3035;49.928;8.410;2024-03-23T02:16:45;22.27;;;11.37;;
6013;SDS011;3035;49.928;8.410;2024-03-23T02:19:12;21.73;;;11.80;;
6013;SDS011;3035;49.928;8.410;2024-03-23T02:21:40;19.43;;;12.13;;
6013;SDS011;3035;49.928;8.410;2024-03-23T02:24:07;31.53;;;12.83;;
6013;SDS011;3035;49.928;8.410;2024-03-23T02:26:35;26.57;;;12.90;;
6013;SDS011;3035;49.928;8.410;2024-03-23T02:29:02;23.00;;;13.00;;
6013;SDS011;3035;49.928;8.410;2024-03-23T02:31:30;17.80;;;11.57;;
6013;SDS011;3035;49.928;8.410;2024-03-23T02:33:57;26.07;;;12.90;;
6013;SDS011;3035;49.928;8.410;2024-03-23T02:36:25;26.03;;;14.10;;
6013;SDS011;3035;49.928;8.410;2024-03-23T02:38:52;21.60;;;13.20;;
6013;SDS011;3035;49.928;8.410;2024-03-23T02:41:21;22.30;;;12.70;;
6013;SDS011;3035;49.928;8.410;2024-03-23T02:43:49;28.33;;;13.50;;
6013;SDS011;3035;49.928;8.410;2024-03-23T02:46:16;26.13;;;13.73;;
6013;SDS011;3035;49.928;8.410;2024-03-23T02:48:45;25.43;;;13.47;;
6013;SDS011;3035;49.928;8.410;2024-03-23T02:51:13;24.63;;;13.20;;
6013;SDS011;3035;49.928;8.410;2024-03-23T02:53:42;30.83;;;13.13;;
6013;SDS011;3035;49.928;8.410;2024-03-23T02:56:09;21.40;;;12.23;;
6013;SDS011;3035;49.928;8.410;2024-03-23T02:58:38;27.17;;;11.30;;
6013;SDS011;3035;49.928;8.410;2024-03-23T03:01:05;28.43;;;13.90;;
6013;SDS011;3035;49.928;8.410;2024-03-23T03:03:34;32.80;;;12.93;;
6013;SDS011;3035;49.928;8.410;2024-03-23T03:06:01;22.30;;;12.93;;
6013;SDS011;3035;49.928;8.410;2024-03-23T03:08:29;31.03;;;13.93;;
6013;SDS011;3035;49.928;8.410;2024-03-23T03:10:57;22.27;;;12.60;;
6013;SDS011;3035;49.928;8.410;2024-03-23T03:13:25;31.27;;;13.83;;
6013;SDS011;3035;49.928;8.410;2024-03-23T03:15:52;22.03;;;12.87;;
6013;SDS011;3035;49.928;8.410;2024-03-23T03:18:20;23.00;;;14.57;;
6013;SDS011;3035;49.928;8.410;2024-03-23T03:20:48;22.40;;;14.20;;
6013;SDS011;3035;49.928;8.410;2024-03-23T03:23:15;21.30;;;13.10;;
6013;SDS011;3035;49.928;8.410;2024-03-23T03:25:43;19.83;;;11.30;;
6013;SDS011;3035;49.928;8.410;2024-03-23T03:28:11;14.10;;;10.40;;
6013;SDS011;3035;49.928;8.410;2024-03-23T03:30:39;18.63;;;11.17;;
6013;SDS011;3035;49.928;8.410;2024-03-23T03:33:07;14.10;;;10.57;;
6013;SDS011;3035;49.928;8.410;2024-03-23T03:35:35;16.40;;;10.87;;
6013;SDS011;3035;49.928;8.410;2024-03-23T03:38:04;18.63;;;10.97;;
6013;SDS011;3035;49.928;8.410;2024-03-23T03:40:30;17.20;;;11.07;;
6013;SDS011;3035;49.928;8.410;2024-03-23T03:42:58;17.37;;;10.93;;
6013;SDS011;3035;49.928;8.410;2024-03-23T03:45:25;16.57;;;10.40;;
6013;SDS011;3035;49.928;8.410;2024-03-23T03:47:53;15.87;;;10.67;;
6013;SDS011;3035;49.928;8.410;2024-03-23T03:50:21;17.70;;;11.17;;
6013;SDS011;3035;49.928;8.410;2024-03-23T03:52:48;16.73;;;10.63;;
6013;SDS011;3035;49.928;8.410;2024-03-23T03:55:15;18.80;;;11.00;;
6013;SDS011;3035;49.928;8.410;2024-03-23T03:57:42;18.90;;;12.03;;
6013;SDS011;3035;49.928;8.410;2024-03-23T04:00:10;18.23;;;11.70;;
6013;SDS011;3035;49.928;8.410;2024-03-23T04:02:38;24.07;;;12.13;;
6013;SDS011;3035;49.928;8.410;2024-03-23T04:05:05;21.43;;;13.53;;
6013;SDS011;3035;49.928;8.410;2024-03-23T04:07:33;20.23;;;13.27;;
6013;SDS011;3035;49.928;8.410;2024-03-23T04:10:01;18.17;;;12.00;;
6013;SDS011;3035;49.928;8.410;2024-03-23T04:12:28;22.77;;;13.20;;
6013;SDS011;3035;49.928;8.410;2024-03-23T04:14:55;24.27;;;12.27;;
6013;SDS011;3035;49.928;8.410;2024-03-23T04:17:23;17.23;;;11.67;;
6013;SDS011;3035;49.928;8.410;2024-03-23T04:19:50;18.57;;;12.33;;
6013;SDS011;3035;49.928;8.410;2024-03-23T04:22:18;19.30;;;10.47;;
6013;SDS011;3035;49.928;8.410;2024-03-23T04:24:45;19.07;;;8.73;;
6013;SDS011;3035;49.928;8.410;2024-03-23T04:27:13;10.30;;;5.53;;
6013;SDS011;3035;49.928;8.410;2024-03-23T04:29:40;8.73;;;3.20;;
6013;SDS011;3035;49.928;8.410;2024-03-23T04:32:07;2.33;;;2.13;;
6013;SDS011;3035;49.928;8.410;2024-03-23T04:34:35;2.93;;;1.80;;
6013;SDS011;3035;49.928;8.410;2024-03-23T04:37:02;3.20;;;2.10;;
6013;SDS011;3035;49.928;8.410;2024-03-23T04:39:30;2.40;;;2.00;;
6013;SDS011;3035;49.928;8.410;2024-03-23T04:41:57;1.97;;;1.80;;
6013;SDS011;3035;49.928;8.410;2024-03-23T04:44:25;3.10;;;2.27;;
6013;SDS011;3035;49.928;8.410;2024-03-23T04:46:52;1.73;;;1.60;;
6013;SDS011;3035;49.928;8.410;2024-03-23T04:49:19;3.70;;;1.57;;
6013;SDS011;3035;49.928;8.410;2024-03-23T04:51:47;2.17;;;1.57;;
6013;SDS011;3035;49.928;8.410;2024-03-23T04:54:15;2.60;;;1.73;;
6013;SDS011;3035;49.928;8.410;2024-03-23T04:56:42;1.87;;;1.40;;
6013;SDS011;3035;49.928;8.410;2024-03-23T04:59:09;1.63;;;1.53;;
6013;SDS011;3035;49.928;8.410;2024-03-23T05:01:37;2.60;;;1.40;;
6013;SDS011;3035;49.928;8.410;2024-03-23T05:04:04;3.50;;;1.60;;
6013;SDS011;3035;49.928;8.410;2024-03-23T05:06:32;1.77;;;1.17;;
6013;SDS011;3035;49.928;8.410;2024-03-23T05:08:59;1.30;;;1.20;;
6013;SDS011;3035;49.928;8.410;2024-03-23T05:11:26;1.40;;;1.30;;
6013;SDS011;3035;49.928;8.410;2024-03-23T05:13:54;2.60;;;1.30;;
6013;SDS011;3035;49.928;8.410;2024-03-23T05:16:21;1.10;;;1.10;;
6013;SDS011;3035;49.928;8.410;2024-03-23T05:18:49;1.60;;;1.50;;
6013;SDS011;3035;49.928;8.410;2024-03-23T05:21:16;1.63;;;1.53;;
6013;SDS011;3035;49.928;8.410;2024-03-23T05:23:44;2.03;;;1.57;;
6013;SDS011;3035;49.928;8.410;2024-03-23T05:26:11;2.10;;;1.90;;
6013;SDS011;3035;49.928;8.410;2024-03-23T05:28:38;2.17;;;1.97;;
6013;SDS011;3035;49.928;8.410;2024-03-23T05:31:06;2.57;;;1.73;;
6013;SDS011;3035;49.928;8.410;2024-03-23T05:33:33;2.27;;;2.10;;
6013;SDS011;3035;49.928;8.410;2024-03-23T05:36:01;2.07;;;1.97;;
6013;SDS011;3035;49.928;8.410;2024-03-23T05:38:28;2.13;;;1.93;;
6013;SDS011;3035;49.928;8.410;2024-03-23T05:40:56;2.43;;;2.23;;
6013;SDS011;3035;49.928;8.410;2024-03-23T05:43:25;3.67;;;2.23;;
6013;SDS011;3035;49.928;8.410;2024-03-23T05:45:54;1.90;;;1.80;;
6013;SDS011;3035;49.928;8.410;2024-03-23T05:48:22;1.53;;;1.43;;
6013;SDS011;3035;49.928;8.410;2024-03-23T05:50:50;1.80;;;1.43;;
6013;SDS011;3035;49.928;8.410;2024-03-23T05:53:19;1.70;;;1.60;;
6013;SDS011;3035;49.928;8.410;2024-03-23T05:55:47;1.43;;;1.33;;
6013;SDS011;3035;49.928;8.410;2024-03-23T05:58:15;1.30;;;1.20;;
6013;SDS011;3035;49.928;8.410;2024-03-23T06:00:43;1.37;;;1.20;;
6013;SDS011;3035;49.928;8.410;2024-03-23T06:03:11;1.20;;;1.10;;
6013;SDS011;3035;49.928;8.410;2024-03-23T06:05:39;1.33;;;1.23;;
6013;SDS011;3035;49.928;8.410;2024-03-23T06:08:08;1.30;;;1.20;;
6013;SDS011;3035;49.928;8.410;2024-03-23T06:10:36;2.30;;;0.87;;
6013;SDS011;3035;49.928;8.410;2024-03-23T06:13:05;4.70;;;1.03;;
6013;SDS011;3035;49.928;8.410;2024-03-23T06:15:33;2.17;;;1.50;;
6013;SDS011;3035;49.928;8.410;2024-03-23T06:18:01;1.10;;;1.00;;
6013;SDS011;3035;49.928;8.410;2024-03-23T06:20:29;0.90;;;0.90;;
6013;SDS011;3035;49.928;8.410;2024-03-23T06:22:57;3.00;;;1.10;;
6013;SDS011;3035;49.928;8.410;2024-03-23T06:25:25;1.13;;;1.03;;
6013;SDS011;3035;49.928;8.410;2024-03-23T06:27:53;1.10;;;1.07;;
6013;SDS011;3035;49.928;8.410;2024-03-23T06:30:22;1.30;;;1.20;;
6013;SDS011;3035;49.928;8.410;2024-03-23T06:32:50;1.30;;;1.17;;
6013;SDS011;3035;49.928;8.410;2024-03-23T06:35:17;1.70;;;1.60;;
6013;SDS011;3035;49.928;8.410;2024-03-23T06:37:45;1.40;;;1.30;;
6013;SDS011;3035;49.928;8.410;2024-03-23T06:40:14;2.50;;;1.67;;
6013;SDS011;3035;49.928;8.410;2024-03-23T06:42:42;1.20;;;1.20;;
6013;SDS011;3035;49.928;8.410;2024-03-23T06:45:10;2.07;;;1.10;;
6013;SDS011;3035;49.928;8.410;2024-03-23T06:47:37;1.17;;;1.07;;
6013;SDS011;3035;49.928;8.410;2024-03-23T06:50:05;1.43;;;1.30;;
6013;SDS011;3035;49.928;8.410;2024-03-23T06:52:33;1.10;;;1.10;;
6013;SDS011;3035;49.928;8.410;2024-03-23T06:55:00;2.20;;;1.20;;
6013;SDS011;3035;49.928;8.410;2024-03-23T06:57:27;2.10;;;1.10;;
6013;SDS011;3035;49.928;8.410;2024-03-23T06:59:55;1.40;;;1.30;;
6013;SDS011;3035;49.928;8.410;2024-03-23T07:02:22;1.63;;;1.27;;
6013;SDS011;3035;49.928;8.410;2024-03-23T07:04:50;7.40;;;1.80;;
6013;SDS011;3035;49.928;8.410;2024-03-23T07:07:17;1.17;;;1.17;;
6013;SDS011;3035;49.928;8.410;2024-03-23T07:09:45;4.03;;;1.60;;
6013;SDS011;3035;49.928;8.410;2024-03-23T07:12:12;1.40;;;1.30;;
6013;SDS011;3035;49.928;8.410;2024-03-23T07:14:39;1.80;;;1.70;;
6013;SDS011;3035;49.928;8.410;2024-03-23T07:17:07;2.00;;;1.70;;
6013;SDS011;3035;49.928;8.410;2024-03-23T07:19:34;1.80;;;1.67;;
6013;SDS011;3035;49.928;8.410;2024-03-23T07:22:02;1.50;;;1.40;;
6013;SDS011;3035;49.928;8.410;2024-03-23T07:24:29;4.27;;;1.77;;
6013;SDS011;3035;49.928;8.410;2024-03-23T07:26:57;3.90;;;1.30;;
6013;SDS011;3035;49.928;8.410;2024-03-23T07:29:24;1.57;;;1.23;;
6013;SDS011;3035;49.928;8.410;2024-03-23T07:31:51;2.77;;;1.30;;
6013;SDS011;3035;49.928;8.410;2024-03-23T07:34:19;3.17;;;1.30;;
6013;SDS011;3035;49.928;8.410;2024-03-23T07:36:46;2.47;;;1.43;;
6013;SDS011;3035;49.928;8.410;2024-03-23T07:39:14;9.90;;;1.40;;
6013;SDS011;3035;49.928;8.410;2024-03-23T07:41:44;3.23;;;2.10;;
6013;SDS011;3035;49.928;8.410;2024-03-23T07:44:09;4.33;;;1.77;;
6013;SDS011;3035;49.928;8.410;2024-03-23T07:46:36;3.70;;;1.63;;
6013;SDS011;3035;49.928;8.410;2024-03-23T07:49:04;5.13;;;1.93;;
6013;SDS011;3035;49.928;8.410;2024-03-23T07:51:31;6.10;;;2.50;;
6013;SDS011;3035;49.928;8.410;2024-03-23T07:53:59;3.37;;;2.00;;
6013;SDS011;3035;49.928;8.410;2024-03-23T07:56:26;11.30;;;3.03;;
6013;SDS011;3035;49.928;8.410;2024-03-23T07:58:54;4.77;;;3.23;;
6013;SDS011;3035;49.928;8.410;2024-03-23T08:01:21;3.70;;;2.70;;
6013;SDS011;3035;49.928;8.410;2024-03-23T08:03:49;16.33;;;4.37;;
6013;SDS011;3035;49.928;8.410;2024-03-23T08:06:16;6.10;;;2.97;;
6013;SDS011;3035;49.928;8.410;2024-03-23T08:08:44;7.63;;;3.43;;
6013;SDS011;3035;49.928;8.410;2024-03-23T08:11:11;3.97;;;2.97;;
6013;SDS011;3035;49.928;8.410;2024-03-23T08:13:39;4.87;;;3.20;;
6013;SDS011;3035;49.928;8.410;2024-03-23T08:16:06;5.37;;;3.20;;
6013;SDS011;3035;49.928;8.410;2024-03-23T08:18:33;4.70;;;2.93;;
6013;SDS011;3035;49.928;8.410;2024-03-23T08:21:03;8.53;;;3.50;;
6013;SDS011;3035;49.928;8.410;2024-03-23T08:23:31;6.67;;;3.33;;
6013;SDS011;3035;49.928;8.410;2024-03-23T08:25:58;7.70;;;2.87;;
6013;SDS011;3035;49.928;8.410;2024-03-23T08:28:25;9.93;;;3.90;;
6013;SDS011;3035;49.928;8.410;2024-03-23T08:30:53;7.93;;;2.67;;
6013;SDS011;3035;49.928;8.410;2024-03-23T08:33:20;5.87;;;2.50;;
6013;SDS011;3035;49.928;8.410;2024-03-23T08:38:22;6.70;;;3.20;;
6013;SDS011;3035;49.928;8.410;2024-03-23T08:43:23;9.00;;;3.23;;
6013;SDS011;3035;49.928;8.410;2024-03-23T08:45:50;8.67;;;3.03;;
6013;SDS011;3035;49.928;8.410;2024-03-23T08:48:19;9.30;;;3.23;;
6013;SDS011;3035;49.928;8.410;2024-03-23T08:50:47;11.43;;;2.80;;
6013;SDS011;3035;49.928;8.410;2024-03-23T08:53:14;8.97;;;3.43;;
6013;SDS011;3035;49.928;8.410;2024-03-23T08:55:41;13.50;;;3.30;;
6013;SDS011;3035;49.928;8.410;2024-03-23T08:58:09;5.47;;;3.13;;
6013;SDS011;3035;49.928;8.410;2024-03-23T09:00:36;5.63;;;3.10;;
6013;SDS011;3035;49.928;8.410;2024-03-23T09:03:04;12.63;;;3.20;;
6013;SDS011;3035;49.928;8.410;2024-03-23T09:05:31;8.20;;;3.50;;
6013;SDS011;3035;49.928;8.410;2024-03-23T09:07:58;7.43;;;3.37;;
6013;SDS011;3035;49.928;8.410;2024-03-23T09:10:26;5.30;;;3.30;;
6013;SDS011;3035;49.928;8.410;2024-03-23T09:12:53;11.20;;;4.03;;
6013;SDS011;3035;49.928;8.410;2024-03-23T09:15:21;8.17;;;3.37;;
6013;SDS011;3035;49.928;8.410;2024-03-23T09:17:48;8.53;;;3.10;;
6013;SDS011;3035;49.928;8.410;2024-03-23T09:20:16;7.87;;;2.73;;
6013;SDS011;3035;49.928;8.410;2024-03-23T09:22:43;9.60;;;3.37;;
6013;SDS011;3035;49.928;8.410;2024-03-23T09:25:10;8.43;;;2.90;;
6013;SDS011;3035;49.928;8.410;2024-03-23T09:27:38;7.03;;;2.40;;
6013;SDS011;3035;49.928;8.410;2024-03-23T09:30:05;8.03;;;3.20;;
6013;SDS011;3035;49.928;8.410;2024-03-23T09:32:33;4.70;;;2.20;;
6013;SDS011;3035;49.928;8.410;2024-03-23T09:35:01;4.90;;;1.63;;
6013;SDS011;3035;49.928;8.410;2024-03-23T09:37:28;6.77;;;2.50;;
6013;SDS011;3035;49.928;8.410;2024-03-23T09:39:55;5.97;;;2.40;;
6013;SDS011;3035;49.928;8.410;2024-03-23T09:42:23;9.00;;;2.53;;
6013;SDS011;3035;49.928;8.410;2024-03-23T09:44:51;9.50;;;2.50;;
6013;SDS011;3035;49.928;8.410;2024-03-23T09:47:19;7.97;;;2.37;;
6013;SDS011;3035;49.928;8.410;2024-03-23T09:49:46;4.47;;;2.57;;
6013;SDS011;3035;49.928;8.410;2024-03-23T09:52:14;3.83;;;1.90;;
6013;SDS011;3035;49.928;8.410;2024-03-23T09:54:42;8.33;;;2.37;;
6013;SDS011;3035;49.928;8.410;2024-03-23T09:57:10;8.50;;;2.10;;
6013;SDS011;3035;49.928;8.410;2024-03-23T09:59:38;3.93;;;1.53;;
6013;SDS011;3035;49.928;8.410;2024-03-23T10:02:05;4.23;;;1.53;;
6013;SDS011;3035;49.928;8.410;2024-03-23T10:04:37;7.80;;;2.17;;
6013;SDS011;3035;49.928;8.410;2024-03-23T10:07:10;4.77;;;1.77;;
6013;SDS011;3035;49.928;8.410;2024-03-23T10:09:38;5.67;;;1.80;;
6013;SDS011;3035;49.928;8.410;2024-03-23T10:12:10;6.00;;;2.40;;
6013;SDS011;3035;49.928;8.410;2024-03-23T10:14:38;23.07;;;2.30;;
6013;SDS011;3035;49.928;8.410;2024-03-23T10:17:18;5.40;;;1.90;;
6013;SDS011;3035;49.928;8.410;2024-03-23T10:19:47;8.43;;;2.10;;
6013;SDS011;3035;49.928;8.410;2024-03-23T10:22:22;5.03;;;1.67;;
6013;SDS011;3035;49.928;8.410;2024-03-23T10:24:50;5.33;;;2.17;;
6013;SDS011;3035;49.928;8.410;2024-03-23T10:27:18;4.40;;;1.63;;
6013;SDS011;3035;49.928;8.410;2024-03-23T10:29:46;13.90;;;2.97;;
6013;SDS011;3035;49.928;8.410;2024-03-23T10:32:14;9.10;;;2.10;;
6013;SDS011;3035;49.928;8.410;2024-03-23T10:34:43;7.30;;;1.80;;
6013;SDS011;3035;49.928;8.410;2024-03-23T10:37:10;7.17;;;1.80;;
6013;SDS011;3035;49.928;8.410;2024-03-23T10:39:38;13.37;;;1.23;;
6013;SDS011;3035;49.928;8.410;2024-03-23T10:42:07;4.97;;;1.73;;
6013;SDS011;3035;49.928;8.410;2024-03-23T10:44:35;4.93;;;1.30;;
6013;SDS011;3035;49.928;8.410;2024-03-23T10:47:04;11.73;;;1.77;;
6013;SDS011;3035;49.928;8.410;2024-03-23T10:49:32;6.50;;;1.60;;
6013;SDS011;3035;49.928;8.410;2024-03-23T10:52:00;8.80;;;1.70;;
6013;SDS011;3035;49.928;8.410;2024-03-23T10:54:28;4.10;;;1.63;;
6013;SDS011;3035;49.928;8.410;2024-03-23T10:56:59;2.00;;;1.10;;
6013;SDS011;3035;49.928;8.410;2024-03-23T10:59:27;5.23;;;1.63;;
6013;SDS011;3035;49.928;8.410;2024-03-23T11:01:57;8.17;;;1.87;;
6013;SDS011;3035;49.928;8.410;2024-03-23T11:07:01;8.23;;;1.80;;
6013;SDS011;3035;49.928;8.410;2024-03-23T11:09:38;10.93;;;2.20;;
6013;SDS011;3035;49.928;8.410;2024-03-23T11:14:40;8.73;;;2.40;;
6013;SDS011;3035;49.928;8.410;2024-03-23T11:17:08;2.63;;;2.00;;
6013;SDS011;3035;49.928;8.410;2024-03-23T11:19:36;6.37;;;1.60;;
6013;SDS011;3035;49.928;8.410;2024-03-23T11:22:04;2.57;;;1.00;;
6013;SDS011;3035;49.928;8.410;2024-03-23T11:24:32;2.20;;;1.20;;
6013;SDS011;3035;49.928;8.410;2024-03-23T11:27:01;2.50;;;0.90;;
6013;SDS011;3035;49.928;8.410;2024-03-23T11:29:28;3.53;;;1.10;;
6013;SDS011;3035;49.928;8.410;2024-03-23T11:31:56;1.20;;;1.00;;
6013;SDS011;3035;49.928;8.410;2024-03-23T11:34:24;1.10;;;0.90;;
6013;SDS011;3035;49.928;8.410;2024-03-23T11:37:03;3.27;;;0.93;;
6013;SDS011;3035;49.928;8.410;2024-03-23T11:39:20;1.30;;;1.00;;
6013;SDS011;3035;49.928;8.410;2024-03-23T11:41:49;4.57;;;1.40;;
6013;SDS011;3035;49.928;8.410;2024-03-23T11:44:17;3.17;;;1.00;;
6013;SDS011;3035;49.928;8.410;2024-03-23T11:46:46;2.70;;;1.10;;
6013;SDS011;3035;49.928;8.410;2024-03-23T11:51:52;3.83;;;1.77;;
6013;SDS011;3035;49.928;8.410;2024-03-23T11:54:20;3.10;;;2.53;;
6013;SDS011;3035;49.928;8.410;2024-03-23T11:56:53;9.87;;;2.60;;
6013;SDS011;3035;49.928;8.410;2024-03-23T12:02:10;7.77;;;2.37;;
6013;SDS011;3035;49.928;8.410;2024-03-23T12:04:39;11.50;;;2.90;;
6013;SDS011;3035;49.928;8.410;2024-03-23T12:07:10;9.37;;;3.40;;
6013;SDS011;3035;49.928;8.410;2024-03-23T12:09:37;7.10;;;2.37;;
6013;SDS011;3035;49.928;8.410;2024-03-23T12:12:07;8.43;;;2.70;;
6013;SDS011;3035;49.928;8.410;2024-03-23T12:14:35;5.50;;;2.07;;
6013;SDS011;3035;49.928;8.410;2024-03-23T12:17:07;6.90;;;3.33;;
6013;SDS011;3035;49.928;8.410;2024-03-23T12:19:34;6.03;;;2.00;;
6013;SDS011;3035;49.928;8.410;2024-03-23T12:22:02;8.73;;;2.07;;
6013;SDS011;3035;49.928;8.410;2024-03-23T12:24:31;4.20;;;2.00;;
6013;SDS011;3035;49.928;8.410;2024-03-23T12:27:00;4.77;;;1.60;;
6013;SDS011;3035;49.928;8.410;2024-03-23T12:29:29;7.43;;;2.17;;
6013;SDS011;3035;49.928;8.410;2024-03-23T12:32:00;4.70;;;2.43;;
6013;SDS011;3035;49.928;8.410;2024-03-23T12:34:28;5.00;;;1.93;;
6013;SDS011;3035;49.928;8.410;2024-03-23T12:36:55;5.43;;;2.00;;
6013;SDS011;3035;49.928;8.410;2024-03-23T12:39:23;3.97;;;1.53;;
6013;SDS011;3035;49.928;8.410;2024-03-23T12:41:51;3.63;;;2.40;;
6013;SDS011;3035;49.928;8.410;2024-03-23T12:44:21;12.13;;;2.37;;
6013;SDS011;3035;49.928;8.410;2024-03-23T12:46:49;7.83;;;1.97;;
6013;SDS011;3035;49.928;8.410;2024-03-23T12:49:16;9.47;;;2.63;;
6013;SDS011;3035;49.928;8.410;2024-03-23T12:51:46;10.20;;;2.80;;
6013;SDS011;3035;49.928;8.410;2024-03-23T12:54:12;3.07;;;2.13;;
6013;SDS011;3035;49.928;8.410;2024-03-23T12:56:40;5.17;;;2.63;;
6013;SDS011;3035;49.928;8.410;2024-03-23T12:59:08;4.60;;;1.87;;
6013;SDS011;3035;49.928;8.410;2024-03-23T13:01:36;2.30;;;1.17;;
6013;SDS011;3035;49.928;8.410;2024-03-23T13:04:04;1.63;;;1.03;;
6013;SDS011;3035;49.928;8.410;2024-03-23T13:06:31;3.27;;;1.20;;
6013;SDS011;3035;49.928;8.410;2024-03-23T13:09:01;4.50;;;1.23;;
6013;SDS011;3035;49.928;8.410;2024-03-23T13:11:29;1.57;;;0.90;;
6013;SDS011;3035;49.928;8.410;2024-03-23T13:13:57;2.40;;;1.07;;
6013;SDS011;3035;49.928;8.410;2024-03-23T13:16:25;2.57;;;1.63;;
6013;SDS011;3035;49.928;8.410;2024-03-23T13:18:54;6.70;;;1.93;;
6013;SDS011;3035;49.928;8.410;2024-03-23T13:21:21;2.57;;;1.00;;
6013;SDS011;3035;49.928;8.410;2024-03-23T13:23:48;5.30;;;2.40;;
6013;SDS011;3035;49.928;8.410;2024-03-23T13:26:17;15.07;;;4.10;;
6013;SDS011;3035;49.928;8.410;2024-03-23T13:28:45;5.33;;;2.93;;
6013;SDS011;3035;49.928;8.410;2024-03-23T13:31:13;1.57;;;1.13;;
6013;SDS011;3035;49.928;8.410;2024-03-23T13:33:41;1.47;;;1.00;;
6013;SDS011;3035;49.928;8.410;2024-03-23T13:36:10;1.73;;;1.27;;
6013;SDS011;3035;49.928;8.410;2024-03-23T13:38:37;4.70;;;1.20;;
6013;SDS011;3035;49.928;8.410;2024-03-23T13:41:05;1.33;;;0.90;;
6013;SDS011;3035;49.928;8.410;2024-03-23T13:43:33;5.77;;;1.33;;
6013;SDS011;3035;49.928;8.410;2024-03-23T13:46:02;1.03;;;0.90;;
6013;SDS011;3035;49.928;8.410;2024-03-23T13:48:30;3.03;;;1.17;;
6013;SDS011;3035;49.928;8.410;2024-03-23T13:50:59;2.07;;;0.90;;
6013;SDS011;3035;49.928;8.410;2024-03-23T13:53:26;1.27;;;1.00;;
6013;SDS011;3035;49.928;8.410;2024-03-23T13:55:54;3.37;;;1.10;;
6013;SDS011;3035;49.928;8.410;2024-03-23T13:58:21;1.67;;;0.90;;
6013;SDS011;3035;49.928;8.410;2024-03-23T14:00:48;1.27;;;1.00;;
6013;SDS011;3035;49.928;8.410;2024-03-23T14:03:16;1.57;;;0.90;;
6013;SDS011;3035;49.928;8.410;2024-03-23T14:05:43;3.13;;;0.90;;
6013;SDS011;3035;49.928;8.410;2024-03-23T14:08:11;3.23;;;1.10;;
6013;SDS011;3035;49.928;8.410;2024-03-23T14:10:40;1.23;;;0.80;;
6013;SDS011;3035;49.928;8.410;2024-03-23T14:13:07;3.03;;;0.90;;
6013;SDS011;3035;49.928;8.410;2024-03-23T14:15:35;1.40;;;0.93;;
6013;SDS011;3035;49.928;8.410;2024-03-23T14:18:03;1.90;;;1.00;;
6013;SDS011;3035;49.928;8.410;2024-03-23T14:20:31;2.37;;;1.00;;
6013;SDS011;3035;49.928;8.410;2024-03-23T14:22:58;3.90;;;1.30;;
6013;SDS011;3035;49.928;8.410;2024-03-23T14:25:25;4.63;;;1.67;;
6013;SDS011;3035;49.928;8.410;2024-03-23T14:27:53;2.93;;;0.90;;
6013;SDS011;3035;49.928;8.410;2024-03-23T14:30:20;1.63;;;0.80;;
6013;SDS011;3035;49.928;8.410;2024-03-23T14:32:48;1.33;;;1.00;;
6013;SDS011;3035;49.928;8.410;2024-03-23T14:35:15;1.60;;;0.90;;
6013;SDS011;3035;49.928;8.410;2024-03-23T14:37:43;1.10;;;0.80;;
6013;SDS011;3035;49.928;8.410;2024-03-23T14:40:10;3.10;;;1.00;;
6013;SDS011;3035;49.928;8.410;2024-03-23T14:42:38;3.17;;;1.13;;
6013;SDS011;3035;49.928;8.410;2024-03-23T14:45:05;1.20;;;0.80;;
6013;SDS011;3035;49.928;8.410;2024-03-23T14:47:33;2.37;;;1.20;;
6013;SDS011;3035;49.928;8.410;2024-03-23T14:50:00;1.87;;;1.00;;
6013;SDS011;3035;49.928;8.410;2024-03-23T14:52:28;0.87;;;0.80;;
6013;SDS011;3035;49.928;8.410;2024-03-23T14:54:55;3.13;;;1.30;;
6013;SDS011;3035;49.928;8.410;2024-03-23T14:57:23;3.70;;;0.97;;
6013;SDS011;3035;49.928;8.410;2024-03-23T14:59:50;2.70;;;1.00;;
6013;SDS011;3035;49.928;8.410;2024-03-23T15:02:17;2.10;;;1.33;;
6013;SDS011;3035;49.928;8.410;2024-03-23T15:04:45;3.37;;;1.30;;
6013;SDS011;3035;49.928;8.410;2024-03-23T15:07:12;3.27;;;1.00;;
6013;SDS011;3035;49.928;8.410;2024-03-23T15:09:40;2.03;;;1.00;;
6013;SDS011;3035;49.928;8.410;2024-03-23T15:12:07;3.60;;;1.83;;
6013;SDS011;3035;49.928;8.410;2024-03-23T15:14:35;4.73;;;1.07;;
6013;SDS011;3035;49.928;8.410;2024-03-23T15:17:02;2.60;;;0.90;;
6013;SDS011;3035;49.928;8.410;2024-03-23T15:19:30;2.83;;;1.03;;
6013;SDS011;3035;49.928;8.410;2024-03-23T15:21:57;4.63;;;1.00;;
6013;SDS011;3035;49.928;8.410;2024-03-23T15:24:24;3.57;;;1.00;;
6013;SDS011;3035;49.928;8.410;2024-03-23T15:26:52;3.23;;;1.20;;
6013;SDS011;3035;49.928;8.410;2024-03-23T15:29:20;4.70;;;1.20;;
6013;SDS011;3035;49.928;8.410;2024-03-23T15:31:47;2.00;;;0.90;;
6013;SDS011;3035;49.928;8.410;2024-03-23T15:34:14;0.80;;;0.80;;
6013;SDS011;3035;49.928;8.410;2024-03-23T15:36:42;3.03;;;1.10;;
6013;SDS011;3035;49.928;8.410;2024-03-23T15:39:09;2.17;;;1.50;;
6013;SDS011;3035;49.928;8.410;2024-03-23T15:41:36;4.30;;;1.00;;
6013;SDS011;3035;49.928;8.410;2024-03-23T15:44:04;3.13;;;1.00;;
6013;SDS011;3035;49.928;8.410;2024-03-23T15:46:31;1.20;;;0.80;;
6013;SDS011;3035;49.928;8.410;2024-03-23T15:48:59;2.33;;;1.00;;
6013;SDS011;3035;49.928;8.410;2024-03-23T15:51:26;3.63;;;0.80;;
6013;SDS011;3035;49.928;8.410;2024-03-23T15:53:54;2.13;;;1.30;;
6013;SDS011;3035;49.928;8.410;2024-03-23T15:56:21;4.40;;;1.00;;
6013;SDS011;3035;49.928;8.410;2024-03-23T15:58:48;1.20;;;1.00;;
6013;SDS011;3035;49.928;8.410;2024-03-23T16:01:16;1.13;;;0.80;;
6013;SDS011;3035;49.928;8.410;2024-03-23T16:03:43;5.13;;;0.83;;
6013;SDS011;3035;49.928;8.410;2024-03-23T16:06:11;1.10;;;0.90;;
6013;SDS011;3035;49.928;8.410;2024-03-23T16:08:38;0.80;;;0.80;;
6013;SDS011;3035;49.928;8.410;2024-03-23T16:11:06;2.30;;;1.00;;
6013;SDS011;3035;49.928;8.410;2024-03-23T16:13:33;3.03;;;1.10;;
6013;SDS011;3035;49.928;8.410;2024-03-23T16:16:01;2.30;;;1.00;;
6013;SDS011;3035;49.928;8.410;2024-03-23T16:18:28;2.13;;;0.90;;
6013;SDS011;3035;49.928;8.410;2024-03-23T16:20:56;1.03;;;0.80;;